Time;durP1;ratioP1;P1;durP2;ratioP2;P2;SDS_P1;SDS_P2;PMS_P1;PMS_P2;Temp;Humidity;BMP_temperature;BMP_pressure;BME280_temperature;BME280_humidity;BME280_pressure;Samples;Min_cycle;Max_cycle;Signal;HPM_P1;HPM_P2
2022/05/15 00:02:43;;;;;;;;;;;14.60;66.50;;;;;;4973032;28;19984;-81
2022/05/15 00:05:09;;;;;;;;;;;14.50;66.50;;;;;;4970709;28;20367;-81
2022/05/15 00:07:34;;;;;;;;;;;14.50;66.70;;;;;;4972496;28;19922;-80
2022/05/15 00:10:00;;;;;;;;;;;14.50;67.00;;;;;;4969779;28;20374;-77
2022/05/15 00:12:26;;;;;;;;;;;14.50;66.90;;;;;;4972908;28;20025;-78
2022/05/15 00:14:51;;;;;;;;;;;14.50;67.00;;;;;;4963891;28;19915;-80
2022/05/15 00:17:17;;;;;;;;;;;14.40;67.30;;;;;;4968656;28;20937;-79
2022/05/15 00:19:42;;;;;;;;;;;14.40;67.40;;;;;;4972753;28;19918;-80
2022/05/15 00:22:08;;;;;;;;;;;14.40;67.40;;;;;;4968907;28;19923;-79
2022/05/15 00:24:34;;;;;;;;;;;14.40;67.50;;;;;;4975458;28;19968;-80
2022/05/15 00:26:59;;;;;;;;;;;14.30;67.60;;;;;;4971815;28;19914;-80
2022/05/15 00:29:25;;;;;;;;;;;14.30;67.90;;;;;;4967498;28;19969;-78
2022/05/15 00:31:50;;;;;;;;;;;14.30;67.60;;;;;;4964920;28;19925;-79
2022/05/15 00:34:16;;;;;;;;;;;14.30;67.70;;;;;;4964924;28;19914;-78
2022/05/15 00:36:41;;;;;;;;;;;14.30;68.40;;;;;;4986438;28;20031;-80
2022/05/15 00:39:07;;;;;;;;;;;14.30;68.30;;;;;;4965595;28;19968;-78
2022/05/15 00:41:33;;;;;;;;;;;14.30;67.90;;;;;;4963757;28;20024;-80
2022/05/15 00:43:59;;;;;;;;;;;14.30;67.70;;;;;;4967020;28;19932;-80
2022/05/15 00:46:26;;;;;;;;;;;14.40;67.80;;;;;;4955554;28;19914;-79
2022/05/15 00:48:52;;;;;;;;;;;14.30;67.90;;;;;;4970322;28;19933;-80
2022/05/15 00:51:27;;;;;;;;;;;14.20;68.20;;;;;;4963576;28;19918;-80
2022/05/15 00:53:54;;;;;;;;;;;14.10;68.90;;;;;;4951564;28;19914;-80
2022/05/15 00:56:21;;;;;;;;;;;14.10;68.70;;;;;;4969100;28;19918;-81
2022/05/15 00:58:52;;;;;;;;;;;14.10;68.80;;;;;;4955104;28;20057;-80
2022/05/15 01:01:18;;;;;;;;;;;14.10;69.20;;;;;;4958283;28;19914;-79
2022/05/15 01:03:44;;;;;;;;;;;14.10;69.20;;;;;;4958123;28;19929;-81
2022/05/15 01:06:10;;;;;;;;;;;14.00;69.30;;;;;;4954768;28;19914;-81
2022/05/15 01:08:35;;;;;;;;;;;14.00;69.60;;;;;;4950902;28;19926;-80
2022/05/15 01:11:05;;;;;;;;;;;14.00;69.20;;;;;;4969361;28;19922;-80
2022/05/15 01:13:32;;;;;;;;;;;14.10;69.20;;;;;;4957930;28;20020;-80
2022/05/15 01:15:57;;;;;;;;;;;14.00;69.40;;;;;;4957124;28;21057;-80
2022/05/15 01:18:23;;;;;;;;;;;13.90;69.80;;;;;;4966033;28;19914;-79
2022/05/15 01:20:53;;;;;;;;;;;13.90;69.90;;;;;;4957081;28;19918;-80
2022/05/15 01:23:18;;;;;;;;;;;13.80;69.90;;;;;;4958223;28;19918;-80
2022/05/15 01:25:44;;;;;;;;;;;13.80;70.00;;;;;;4968335;28;19972;-79
2022/05/15 01:28:13;;;;;;;;;;;13.90;69.60;;;;;;4951486;28;19942;-79
2022/05/15 01:30:41;;;;;;;;;;;13.80;70.00;;;;;;4950784;28;19965;-79
2022/05/15 01:33:06;;;;;;;;;;;13.80;70.40;;;;;;4956677;28;19914;-80
2022/05/15 01:35:32;;;;;;;;;;;13.70;70.20;;;;;;4946487;28;19919;-80
2022/05/15 01:37:57;;;;;;;;;;;13.60;70.60;;;;;;4968972;28;20001;-79
2022/05/15 01:40:23;;;;;;;;;;;13.70;70.70;;;;;;4964200;28;19949;-79
2022/05/15 01:42:48;;;;;;;;;;;13.70;70.50;;;;;;4947495;28;19973;-79
2022/05/15 01:45:14;;;;;;;;;;;13.60;71.00;;;;;;4961635;28;19918;-79
2022/05/15 01:47:40;;;;;;;;;;;13.60;71.20;;;;;;4947894;28;19918;-79
2022/05/15 01:50:06;;;;;;;;;;;13.70;70.50;;;;;;4964443;28;20028;-79
2022/05/15 01:52:31;;;;;;;;;;;13.60;70.90;;;;;;4960879;28;19918;-82
2022/05/15 01:54:57;;;;;;;;;;;13.60;71.30;;;;;;4966582;28;20412;-79
2022/05/15 01:57:23;;;;;;;;;;;13.50;71.40;;;;;;4970654;28;19914;-79
2022/05/15 01:59:48;;;;;;;;;;;13.30;71.90;;;;;;4970457;28;19957;-79
2022/05/15 02:02:14;;;;;;;;;;;13.30;72.60;;;;;;4972809;28;20717;-81
2022/05/15 02:04:39;;;;;;;;;;;13.30;72.80;;;;;;4973427;28;20014;-79
2022/05/15 02:07:05;;;;;;;;;;;13.20;72.80;;;;;;4952435;28;19910;-79
2022/05/15 02:09:31;;;;;;;;;;;13.20;73.20;;;;;;4957682;28;19921;-79
2022/05/15 02:11:56;;;;;;;;;;;13.10;73.30;;;;;;4953883;28;19980;-79
2022/05/15 02:14:22;;;;;;;;;;;13.10;73.00;;;;;;4972649;28;19918;-79
2022/05/15 02:16:47;;;;;;;;;;;13.10;73.60;;;;;;4953258;28;19999;-80
2022/05/15 02:19:13;;;;;;;;;;;13.10;73.20;;;;;;4956832;28;19925;-80
2022/05/15 02:21:38;;;;;;;;;;;13.10;73.20;;;;;;4971353;28;20016;-80
2022/05/15 02:24:04;;;;;;;;;;;13.10;73.50;;;;;;4978348;28;19922;-80
2022/05/15 02:26:30;;;;;;;;;;;13.10;73.30;;;;;;4957660;28;20327;-80
2022/05/15 02:28:55;;;;;;;;;;;13.10;73.40;;;;;;4973819;28;19922;-79
2022/05/15 02:31:20;;;;;;;;;;;13.10;73.20;;;;;;4960516;28;19964;-81
2022/05/15 02:33:46;;;;;;;;;;;13.00;73.60;;;;;;4977596;28;19914;-80
2022/05/15 02:36:11;;;;;;;;;;;13.00;73.90;;;;;;4955943;28;20374;-79
2022/05/15 02:38:37;;;;;;;;;;;12.90;74.20;;;;;;4975126;28;19922;-79
2022/05/15 02:41:03;;;;;;;;;;;12.90;74.20;;;;;;4978514;28;19918;-79
2022/05/15 02:43:28;;;;;;;;;;;12.80;74.40;;;;;;4961649;28;19925;-79
2022/05/15 02:45:54;;;;;;;;;;;12.70;74.80;;;;;;4975670;28;19925;-80
2022/05/15 02:51:04;;;;;;;;;;;12.70;75.20;;;;;;4968055;28;19926;-79
2022/05/15 02:53:34;;;;;;;;;;;12.60;75.00;;;;;;4961852;28;19914;-79
2022/05/15 02:56:00;;;;;;;;;;;12.70;74.80;;;;;;4955652;28;19918;-79
2022/05/15 02:58:26;;;;;;;;;;;12.60;74.70;;;;;;4968117;28;20399;-80
2022/05/15 03:00:51;;;;;;;;;;;12.60;74.70;;;;;;4953905;28;19997;-80
2022/05/15 03:03:17;;;;;;;;;;;12.50;74.90;;;;;;4969053;28;19921;-80
2022/05/15 03:05:42;;;;;;;;;;;12.40;75.00;;;;;;4970354;28;20290;-80
2022/05/15 03:08:08;;;;;;;;;;;12.40;75.20;;;;;;4971257;28;19914;-80
2022/05/15 03:10:33;;;;;;;;;;;12.30;75.20;;;;;;4951503;28;19934;-80
2022/05/15 03:12:59;;;;;;;;;;;12.30;75.20;;;;;;4967476;28;20378;-79
2022/05/15 03:15:24;;;;;;;;;;;12.30;75.20;;;;;;4955635;28;20390;-79
2022/05/15 03:17:49;;;;;;;;;;;12.10;75.60;;;;;;4971211;28;21704;-80
2022/05/15 03:20:16;;;;;;;;;;;12.10;76.00;;;;;;4968808;28;19922;-78
2022/05/15 03:22:42;;;;;;;;;;;12.10;75.80;;;;;;4971688;28;19914;-79
2022/05/15 03:25:08;;;;;;;;;;;12.00;75.70;;;;;;4953869;28;19922;-78
2022/05/15 03:27:34;;;;;;;;;;;11.90;75.90;;;;;;4950854;28;19928;-80
2022/05/15 03:29:59;;;;;;;;;;;11.70;76.60;;;;;;4950709;28;19918;-80
2022/05/15 03:32:25;;;;;;;;;;;11.60;77.10;;;;;;4952544;28;20653;-81
2022/05/15 03:34:50;;;;;;;;;;;11.70;77.00;;;;;;4970162;28;19922;-79
2022/05/15 03:37:16;;;;;;;;;;;11.60;77.20;;;;;;4972258;28;19921;-78
2022/05/15 03:39:41;;;;;;;;;;;11.60;77.40;;;;;;4953338;28;19969;-80
2022/05/15 03:42:07;;;;;;;;;;;11.60;77.50;;;;;;4955749;28;20004;-80
2022/05/15 03:44:33;;;;;;;;;;;11.50;77.30;;;;;;4972042;28;20647;-79
2022/05/15 03:46:59;;;;;;;;;;;11.50;77.90;;;;;;4970648;28;20000;-80
2022/05/15 03:49:24;;;;;;;;;;;11.50;77.60;;;;;;4971758;28;19914;-80
2022/05/15 03:51:50;;;;;;;;;;;11.50;77.50;;;;;;4969718;28;19921;-81
2022/05/15 03:54:15;;;;;;;;;;;11.60;77.30;;;;;;4970732;28;19922;-79
2022/05/15 03:56:50;;;;;;;;;;;11.60;77.10;;;;;;4971549;28;20366;-78
2022/05/15 03:59:16;;;;;;;;;;;11.60;77.20;;;;;;4965235;28;20427;-79
2022/05/15 04:01:42;;;;;;;;;;;11.50;77.80;;;;;;4966281;28;19918;-80
2022/05/15 04:04:08;;;;;;;;;;;11.40;78.00;;;;;;4969468;28;19951;-80
2022/05/15 04:06:33;;;;;;;;;;;11.40;77.90;;;;;;4970601;28;20392;-80
2022/05/15 04:08:59;;;;;;;;;;;11.30;78.50;;;;;;4968625;28;19953;-78
2022/05/15 04:11:24;;;;;;;;;;;11.40;78.50;;;;;;4971279;28;19969;-80
2022/05/15 04:13:50;;;;;;;;;;;11.50;78.90;;;;;;4971976;28;19994;-79
2022/05/15 04:16:15;;;;;;;;;;;11.50;78.90;;;;;;4984289;28;20364;-79
2022/05/15 04:18:41;;;;;;;;;;;11.50;79.00;;;;;;4966997;28;19926;-80
2022/05/15 04:21:06;;;;;;;;;;;11.60;78.90;;;;;;4967795;28;20391;-80
2022/05/15 04:23:32;;;;;;;;;;;11.60;78.40;;;;;;4967489;28;19991;-80
2022/05/15 04:25:57;;;;;;;;;;;11.70;78.10;;;;;;4969431;28;19922;-79
2022/05/15 04:28:23;;;;;;;;;;;11.70;77.90;;;;;;4973052;28;19920;-81
2022/05/15 04:30:48;;;;;;;;;;;11.60;77.80;;;;;;4967617;28;20371;-79
2022/05/15 04:33:14;;;;;;;;;;;11.60;78.20;;;;;;4967955;28;19914;-80
2022/05/15 04:35:40;;;;;;;;;;;11.60;78.30;;;;;;4962098;28;19993;-81
2022/05/15 04:38:07;;;;;;;;;;;11.70;78.20;;;;;;4974647;28;19914;-81
2022/05/15 04:40:32;;;;;;;;;;;11.70;78.20;;;;;;4967338;28;19914;-80
2022/05/15 04:42:58;;;;;;;;;;;11.80;78.50;;;;;;4973333;28;19985;-79
2022/05/15 04:45:24;;;;;;;;;;;11.90;78.30;;;;;;4967623;28;19972;-81
2022/05/15 04:47:49;;;;;;;;;;;11.90;78.60;;;;;;4956361;28;19957;-80
2022/05/15 04:50:16;;;;;;;;;;;12.00;78.10;;;;;;4970926;28;19918;-81
2022/05/15 04:52:41;;;;;;;;;;;12.10;78.00;;;;;;4970787;28;19918;-79
2022/05/15 04:55:07;;;;;;;;;;;12.30;77.70;;;;;;4966321;28;20006;-81
2022/05/15 04:57:33;;;;;;;;;;;12.40;77.60;;;;;;4968518;28;19914;-80
2022/05/15 04:59:59;;;;;;;;;;;12.50;77.40;;;;;;4965984;28;19918;-79
2022/05/15 05:02:24;;;;;;;;;;;12.60;77.40;;;;;;4967984;28;19914;-81
2022/05/15 05:04:50;;;;;;;;;;;12.70;76.90;;;;;;4953701;28;19922;-85
2022/05/15 05:07:15;;;;;;;;;;;12.90;76.40;;;;;;4968256;28;19949;-80
2022/05/15 05:09:40;;;;;;;;;;;13.10;75.90;;;;;;4969255;28;19977;-81
2022/05/15 05:12:06;;;;;;;;;;;13.10;75.80;;;;;;4973533;28;19914;-82
2022/05/15 05:14:32;;;;;;;;;;;13.30;75.60;;;;;;4953451;28;19925;-80
2022/05/15 05:16:57;;;;;;;;;;;13.50;74.80;;;;;;4969445;28;19914;-81
2022/05/15 05:19:23;;;;;;;;;;;13.40;74.30;;;;;;4966990;28;19982;-81
2022/05/15 05:21:48;;;;;;;;;;;13.30;74.40;;;;;;4963768;28;19914;-81
2022/05/15 05:24:14;;;;;;;;;;;13.30;74.40;;;;;;4974919;28;19925;-81
2022/05/15 05:26:39;;;;;;;;;;;13.50;74.80;;;;;;4972175;28;19973;-81
2022/05/15 05:29:05;;;;;;;;;;;13.50;74.80;;;;;;4974469;28;19930;-81
2022/05/15 05:31:30;;;;;;;;;;;13.70;74.80;;;;;;4981807;28;19918;-80
2022/05/15 05:33:56;;;;;;;;;;;14.00;74.10;;;;;;4966384;28;19977;-80
2022/05/15 05:36:22;;;;;;;;;;;14.30;73.50;;;;;;4980481;28;20013;-79
2022/05/15 05:38:47;;;;;;;;;;;14.50;72.90;;;;;;4953687;28;19915;-79
2022/05/15 05:41:13;;;;;;;;;;;14.90;72.00;;;;;;4962110;28;20330;-79
2022/05/15 05:43:38;;;;;;;;;;;15.00;71.00;;;;;;4971640;28;19933;-81
2022/05/15 05:46:04;;;;;;;;;;;15.30;70.60;;;;;;4972400;28;20000;-81
2022/05/15 05:48:30;;;;;;;;;;;15.60;69.40;;;;;;4963335;28;19914;-81
2022/05/15 05:50:55;;;;;;;;;;;15.60;68.90;;;;;;4971601;28;20018;-81
2022/05/15 05:53:21;;;;;;;;;;;15.60;68.70;;;;;;4966667;28;20291;-81
2022/05/15 05:55:46;;;;;;;;;;;15.50;70.00;;;;;;4968452;28;20389;-80
2022/05/15 05:58:12;;;;;;;;;;;15.50;69.30;;;;;;4971361;28;19915;-81
2022/05/15 06:00:38;;;;;;;;;;;15.20;69.20;;;;;;4968264;28;19918;-81
2022/05/15 06:05:48;;;;;;;;;;;15.00;70.50;;;;;;4972234;28;19937;-78
2022/05/15 06:08:14;;;;;;;;;;;15.00;71.90;;;;;;4962841;28;20370;-80
2022/05/15 06:10:40;;;;;;;;;;;15.00;71.40;;;;;;4947564;28;19926;-81
2022/05/15 06:13:06;;;;;;;;;;;15.10;71.50;;;;;;4972108;28;20283;-82
2022/05/15 06:15:31;;;;;;;;;;;15.20;70.30;;;;;;4970083;28;19914;-81
2022/05/15 06:17:58;;;;;;;;;;;15.40;70.00;;;;;;4975171;28;19976;-80
2022/05/15 06:20:24;;;;;;;;;;;15.40;70.50;;;;;;4972625;28;19991;-81
2022/05/15 06:22:49;;;;;;;;;;;15.50;68.80;;;;;;4972616;28;20395;-80
2022/05/15 06:25:14;;;;;;;;;;;15.50;69.30;;;;;;4973265;28;20244;-81
2022/05/15 06:27:40;;;;;;;;;;;15.40;70.00;;;;;;4971391;28;20036;-82
2022/05/15 06:30:06;;;;;;;;;;;15.30;71.30;;;;;;4973095;28;19998;-80
2022/05/15 06:32:32;;;;;;;;;;;15.40;70.90;;;;;;4955880;28;19949;-80
2022/05/15 06:34:57;;;;;;;;;;;15.50;70.50;;;;;;4969522;28;19914;-80
2022/05/15 06:37:23;;;;;;;;;;;15.50;70.50;;;;;;4955586;28;20409;-81
2022/05/15 06:39:48;;;;;;;;;;;15.50;70.00;;;;;;4965069;28;19914;-82
2022/05/15 06:42:14;;;;;;;;;;;15.50;69.40;;;;;;4954691;28;19918;-80
2022/05/15 06:44:39;;;;;;;;;;;15.60;70.30;;;;;;4953685;28;19922;-80
2022/05/15 06:47:05;;;;;;;;;;;15.60;70.00;;;;;;4962203;28;19914;-80
2022/05/15 06:49:30;;;;;;;;;;;15.60;69.40;;;;;;4978497;28;19913;-81
2022/05/15 06:51:56;;;;;;;;;;;15.70;70.70;;;;;;4971017;28;19922;-81
2022/05/15 06:54:21;;;;;;;;;;;15.80;69.80;;;;;;4969856;28;19914;-79
2022/05/15 06:59:31;;;;;;;;;;;15.80;70.10;;;;;;4968254;28;19949;-77
2022/05/15 07:01:57;;;;;;;;;;;15.90;68.40;;;;;;4970378;28;20000;-79
2022/05/15 07:04:22;;;;;;;;;;;16.00;68.90;;;;;;4969356;28;20053;-79
2022/05/15 07:06:48;;;;;;;;;;;16.10;67.60;;;;;;4970518;28;19921;-78
2022/05/15 07:09:13;;;;;;;;;;;16.20;67.40;;;;;;4969700;28;19914;-78
2022/05/15 07:11:40;;;;;;;;;;;16.30;68.00;;;;;;4965811;28;19928;-78
2022/05/15 07:14:05;;;;;;;;;;;16.30;67.30;;;;;;4982737;28;19948;-78
2022/05/15 07:16:31;;;;;;;;;;;16.30;68.20;;;;;;4971980;28;20383;-79
2022/05/15 07:18:56;;;;;;;;;;;16.50;68.90;;;;;;4967734;28;19936;-79
2022/05/15 07:21:22;;;;;;;;;;;16.60;68.00;;;;;;4973561;28;20356;-79
2022/05/15 07:23:48;;;;;;;;;;;16.60;67.50;;;;;;4968408;28;19941;-79
2022/05/15 07:26:13;;;;;;;;;;;16.70;66.60;;;;;;4974460;28;20036;-79
2022/05/15 07:28:39;;;;;;;;;;;16.80;66.60;;;;;;4968957;28;20325;-80
2022/05/15 07:31:04;;;;;;;;;;;17.00;65.40;;;;;;4972504;28;19918;-81
2022/05/15 07:33:30;;;;;;;;;;;17.10;64.70;;;;;;4966513;28;19914;-80
2022/05/15 07:35:55;;;;;;;;;;;17.10;65.00;;;;;;4971821;28;20303;-81
2022/05/15 07:38:21;;;;;;;;;;;17.10;64.50;;;;;;4964176;28;19962;-81
2022/05/15 07:40:47;;;;;;;;;;;17.20;63.80;;;;;;4967281;28;20286;-80
2022/05/15 07:43:13;;;;;;;;;;;17.20;64.20;;;;;;4963460;28;19921;-80
2022/05/15 07:45:39;;;;;;;;;;;17.30;64.90;;;;;;4967969;28;19993;-80
2022/05/15 07:48:06;;;;;;;;;;;17.50;64.30;;;;;;4968425;28;20275;-82
2022/05/15 07:50:32;;;;;;;;;;;17.80;63.70;;;;;;4967270;28;19918;-80
2022/05/15 07:52:58;;;;;;;;;;;17.80;62.00;;;;;;4968393;28;20426;-81
2022/05/15 07:55:23;;;;;;;;;;;17.80;63.00;;;;;;4964912;28;20333;-81
2022/05/15 07:57:49;;;;;;;;;;;18.00;62.00;;;;;;4969993;28;19914;-78
2022/05/15 08:00:15;;;;;;;;;;;18.10;61.90;;;;;;4959282;28;20279;-82
2022/05/15 08:02:41;;;;;;;;;;;18.10;61.70;;;;;;4967109;28;19918;-79
2022/05/15 08:08:01;;;;;;;;;;;18.30;60.60;;;;;;4970324;28;20025;-80
2022/05/15 08:10:28;;;;;;;;;;;18.40;60.20;;;;;;4970590;28;19937;-78
2022/05/15 08:12:53;;;;;;;;;;;18.50;59.20;;;;;;4970871;28;19920;-78
2022/05/15 08:15:19;;;;;;;;;;;18.60;59.20;;;;;;4962534;28;19937;-79
2022/05/15 08:17:44;;;;;;;;;;;18.70;59.40;;;;;;4972604;28;19921;-80
2022/05/15 08:25:39;;;;;;;;;;;18.80;58.50;;;;;;4963846;28;20295;-79
2022/05/15 08:28:05;;;;;;;;;;;19.00;58.80;;;;;;4962701;28;19946;-80
2022/05/15 08:30:31;;;;;;;;;;;19.10;56.00;;;;;;4967902;28;20032;-79
2022/05/15 08:32:57;;;;;;;;;;;19.30;55.30;;;;;;4966099;28;19914;-80
2022/05/15 08:35:22;;;;;;;;;;;19.30;55.70;;;;;;4967783;28;19918;-82
2022/05/15 08:37:48;;;;;;;;;;;19.30;55.60;;;;;;4965078;28;19918;-83
2022/05/15 08:40:14;;;;;;;;;;;19.30;56.10;;;;;;4962991;28;19914;-80
2022/05/15 08:42:50;;;;;;;;;;;19.30;55.20;;;;;;4964774;28;20725;-79
2022/05/15 08:45:18;;;;;;;;;;;19.50;53.80;;;;;;4962875;28;20008;-79
2022/05/15 08:47:44;;;;;;;;;;;19.50;52.60;;;;;;4967110;28;20240;-78
2022/05/15 08:50:12;;;;;;;;;;;19.60;53.20;;;;;;4963244;28;20005;-79
2022/05/15 08:52:50;;;;;;;;;;;19.70;50.90;;;;;;4965540;28;19993;-79
2022/05/15 08:55:17;;;;;;;;;;;19.70;52.50;;;;;;4961557;28;20375;-79
2022/05/15 08:57:50;;;;;;;;;;;19.90;49.50;;;;;;4966232;28;19941;-83
2022/05/15 09:00:18;;;;;;;;;;;19.90;49.80;;;;;;4976131;28;19918;-80
2022/05/15 09:02:44;;;;;;;;;;;19.90;51.10;;;;;;4961794;28;20445;-80
2022/05/15 09:05:11;;;;;;;;;;;20.00;51.40;;;;;;4962124;28;19921;-79
2022/05/15 09:07:42;;;;;;;;;;;20.10;50.70;;;;;;4958068;28;20686;-80
2022/05/15 09:10:14;;;;;;;;;;;20.10;49.80;;;;;;4968663;28;19938;-81
2022/05/15 09:12:42;;;;;;;;;;;20.10;49.00;;;;;;4966743;28;19925;-81
2022/05/15 09:15:12;;;;;;;;;;;20.10;50.00;;;;;;4974075;28;19980;-80
2022/05/15 09:17:45;;;;;;;;;;;20.10;47.90;;;;;;4971771;28;19950;-83
2022/05/15 09:20:13;;;;;;;;;;;20.20;48.90;;;;;;4971104;28;19929;-81
2022/05/15 09:22:41;;;;;;;;;;;20.20;49.40;;;;;;4980302;28;19918;-80
2022/05/15 09:25:26;;;;;;;;;;;20.10;49.60;;;;;;4975069;28;19984;-83
2022/05/15 09:27:58;;;;;;;;;;;20.20;49.40;;;;;;4977538;28;19914;-82
2022/05/15 09:30:31;;;;;;;;;;;20.20;50.80;;;;;;4973463;28;19925;-80
2022/05/15 09:32:57;;;;;;;;;;;20.40;50.00;;;;;;4974365;28;19925;-82
2022/05/15 09:35:31;;;;;;;;;;;20.40;50.70;;;;;;4974502;28;19918;-81
2022/05/15 09:43:30;;;;;;;;;;;20.60;50.50;;;;;;4976485;28;19926;-82
2022/05/15 09:43:32;;;;;;;;;;;20.50;51.40;;;;;;4970351;28;20037;-80
2022/05/15 09:46:05;;;;;;;;;;;20.60;54.00;;;;;;4975838;28;20449;-80
2022/05/15 09:48:35;;;;;;;;;;;20.50;53.30;;;;;;4977719;28;19965;-80
2022/05/15 09:51:02;;;;;;;;;;;20.70;51.90;;;;;;4959189;28;19925;-80
2022/05/15 09:53:34;;;;;;;;;;;20.80;51.10;;;;;;4978563;28;19938;-83
2022/05/15 09:56:01;;;;;;;;;;;20.70;51.30;;;;;;4959366;28;19918;-79
2022/05/15 09:58:35;;;;;;;;;;;20.60;50.60;;;;;;4976674;28;19937;-81
2022/05/15 10:01:30;;;;;;;;;;;20.60;51.10;;;;;;4964478;28;19956;-81
2022/05/15 10:03:57;;;;;;;;;;;20.70;50.00;;;;;;4944873;28;20224;-81
2022/05/15 10:06:24;;;;;;;;;;;20.80;50.80;;;;;;4979038;28;19989;-80
2022/05/15 10:09:09;;;;;;;;;;;20.90;48.30;;;;;;4979965;28;19930;-81
2022/05/15 10:11:36;;;;;;;;;;;20.90;49.60;;;;;;4964916;28;19972;-85
2022/05/15 10:14:02;;;;;;;;;;;20.90;50.00;;;;;;4952429;28;19914;-85
2022/05/15 10:16:30;;;;;;;;;;;20.90;50.10;;;;;;4954993;28;19914;-82
2022/05/15 10:18:59;;;;;;;;;;;21.10;48.00;;;;;;4962086;28;20280;-80
2022/05/15 10:21:41;;;;;;;;;;;20.90;48.60;;;;;;4969860;28;19918;-81
2022/05/15 10:24:09;;;;;;;;;;;21.00;50.00;;;;;;4979518;28;20378;-82
2022/05/15 10:27:04;;;;;;;;;;;21.10;50.40;;;;;;4980209;28;19918;-82
2022/05/15 10:29:49;;;;;;;;;;;21.20;47.90;;;;;;4958741;28;19915;-81
2022/05/15 10:32:17;;;;;;;;;;;21.30;49.30;;;;;;4971520;28;20350;-81
2022/05/15 10:34:43;;;;;;;;;;;21.30;50.60;;;;;;4958639;28;19918;-81
2022/05/15 10:37:27;;;;;;;;;;;21.50;51.80;;;;;;4978506;28;19929;-81
2022/05/15 10:40:28;;;;;;;;;;;21.50;49.00;;;;;;4978964;28;19988;-80
2022/05/15 10:43:05;;;;;;;;;;;21.60;50.30;;;;;;4907894;29;19951;-82
2022/05/15 10:45:31;;;;;;;;;;;21.60;49.30;;;;;;4969846;28;19922;-81
2022/05/15 10:48:15;;;;;;;;;;;21.60;49.30;;;;;;4960368;28;19997;-81
2022/05/15 10:50:50;;;;;;;;;;;21.60;48.10;;;;;;4979161;28;19973;-81
2022/05/15 10:59:32;;;;;;;;;;;21.60;49.20;;;;;;4967703;28;19977;-79
2022/05/15 11:02:16;;;;;;;;;;;21.80;47.80;;;;;;4975236;28;20288;-81
2022/05/15 11:04:51;;;;;;;;;;;21.70;48.90;;;;;;4962380;28;20577;-79
2022/05/15 11:07:16;;;;;;;;;;;21.70;48.30;;;;;;4956693;28;19915;-79
2022/05/15 11:09:58;;;;;;;;;;;21.70;47.50;;;;;;4958951;28;19921;-80
2022/05/15 11:12:42;;;;;;;;;;;21.60;48.20;;;;;;4956019;28;19914;-80
2022/05/15 11:15:17;;;;;;;;;;;21.80;50.00;;;;;;4969308;28;20005;-80
2022/05/15 11:18:01;;;;;;;;;;;21.70;48.60;;;;;;4961450;28;20009;-81
2022/05/15 11:20:39;;;;;;;;;;;22.00;48.60;;;;;;4975460;28;19921;-79
2022/05/15 11:23:09;;;;;;;;;;;22.00;47.30;;;;;;4968139;28;19910;-80
2022/05/15 11:26:04;;;;;;;;;;;22.00;48.00;;;;;;4980088;28;19914;-80
2022/05/15 11:28:51;;;;;;;;;;;22.10;47.00;;;;;;4954607;28;19981;-80
2022/05/15 11:31:25;;;;;;;;;;;22.10;47.10;;;;;;4950927;28;19918;-78
2022/05/15 11:33:56;;;;;;;;;;;22.20;47.80;;;;;;4962968;28;19925;-80
2022/05/15 11:36:22;;;;;;;;;;;22.30;48.20;;;;;;4980499;28;19914;-80
2022/05/15 11:39:08;;;;;;;;;;;22.30;46.40;;;;;;4969417;28;19977;-81
2022/05/15 11:41:36;;;;;;;;;;;22.30;47.50;;;;;;4980443;28;20272;-81
2022/05/15 11:44:05;;;;;;;;;;;22.30;47.30;;;;;;4966886;28;19914;-81
2022/05/15 11:46:46;;;;;;;;;;;22.30;46.50;;;;;;4969395;28;19951;-80
2022/05/15 11:49:27;;;;;;;;;;;22.30;47.50;;;;;;4961950;28;19990;-80
2022/05/15 11:52:16;;;;;;;;;;;22.30;47.20;;;;;;4969761;28;20298;-80
2022/05/15 11:54:43;;;;;;;;;;;22.50;47.30;;;;;;4945405;28;20005;-79
2022/05/15 11:57:13;;;;;;;;;;;22.60;44.90;;;;;;4957076;28;19918;-80
2022/05/15 11:59:46;;;;;;;;;;;22.80;44.90;;;;;;4969534;28;19933;-80
2022/05/15 12:02:20;;;;;;;;;;;22.60;44.80;;;;;;4973799;28;19915;-80
2022/05/15 12:04:46;;;;;;;;;;;22.50;44.50;;;;;;4947338;28;20762;-79
2022/05/15 12:07:16;;;;;;;;;;;22.40;45.70;;;;;;4952229;28;20479;-79
2022/05/15 12:09:43;;;;;;;;;;;22.50;47.20;;;;;;4947406;28;19972;-78
2022/05/15 12:12:18;;;;;;;;;;;22.60;46.30;;;;;;4945562;28;19922;-79
2022/05/15 12:15:03;;;;;;;;;;;22.80;43.90;;;;;;4964424;28;19936;-80
2022/05/15 12:17:30;;;;;;;;;;;22.70;44.40;;;;;;4965353;28;19925;-80
2022/05/15 12:20:03;;;;;;;;;;;22.50;45.10;;;;;;4971243;28;19914;-80
2022/05/15 12:22:35;;;;;;;;;;;22.60;44.10;;;;;;4965272;28;19924;-81
2022/05/15 12:25:08;;;;;;;;;;;22.60;43.60;;;;;;4948434;28;19920;-81
2022/05/15 12:27:39;;;;;;;;;;;22.60;42.30;;;;;;4964742;28;19996;-80
2022/05/15 12:30:13;;;;;;;;;;;22.60;42.60;;;;;;4948757;28;20115;-81
2022/05/15 12:32:42;;;;;;;;;;;22.70;42.50;;;;;;4961272;28;20009;-79
2022/05/15 12:35:15;;;;;;;;;;;22.80;42.10;;;;;;4964325;28;19929;-80
2022/05/15 12:37:49;;;;;;;;;;;22.80;44.30;;;;;;4963846;28;20318;-80
2022/05/15 12:40:15;;;;;;;;;;;22.80;42.20;;;;;;4964188;28;19964;-80
2022/05/15 12:42:41;;;;;;;;;;;22.80;42.70;;;;;;4956805;28;20355;-79
2022/05/15 12:45:07;;;;;;;;;;;22.90;40.80;;;;;;4959674;28;19922;-79
2022/05/15 12:47:33;;;;;;;;;;;23.00;43.30;;;;;;4968611;28;19918;-78
2022/05/15 12:50:00;;;;;;;;;;;22.90;41.90;;;;;;4970333;28;19968;-78
2022/05/15 12:52:28;;;;;;;;;;;23.00;43.50;;;;;;4968316;28;20371;-78
2022/05/15 12:54:55;;;;;;;;;;;22.90;42.30;;;;;;4956608;28;19949;-79
2022/05/15 12:57:21;;;;;;;;;;;23.10;41.90;;;;;;4962961;28;19925;-79
2022/05/15 12:59:48;;;;;;;;;;;23.10;42.00;;;;;;4963665;28;19917;-79
2022/05/15 13:02:14;;;;;;;;;;;23.10;41.30;;;;;;4966932;28;19916;-79
2022/05/15 13:04:44;;;;;;;;;;;23.10;42.10;;;;;;4964377;28;19976;-78
2022/05/15 13:07:09;;;;;;;;;;;23.20;41.20;;;;;;4970464;28;19953;-79
2022/05/15 13:09:35;;;;;;;;;;;23.30;40.10;;;;;;4965208;28;19914;-78
2022/05/15 13:12:02;;;;;;;;;;;23.30;41.00;;;;;;4970767;28;20049;-78
2022/05/15 13:14:27;;;;;;;;;;;23.20;40.60;;;;;;4971389;28;19925;-82
2022/05/15 13:16:53;;;;;;;;;;;23.30;42.50;;;;;;4972296;28;19914;-81
2022/05/15 13:19:23;;;;;;;;;;;23.50;42.90;;;;;;4963174;28;20010;-79
2022/05/15 13:21:50;;;;;;;;;;;23.60;42.40;;;;;;4963210;28;19982;-78
2022/05/15 13:24:16;;;;;;;;;;;23.50;40.70;;;;;;4965627;28;19961;-79
2022/05/15 13:26:46;;;;;;;;;;;23.50;40.10;;;;;;4962394;28;19936;-80
2022/05/15 13:29:18;;;;;;;;;;;23.50;43.10;;;;;;4964264;28;19918;-77
2022/05/15 13:31:44;;;;;;;;;;;23.50;41.30;;;;;;4977148;28;20008;-79
2022/05/15 13:34:11;;;;;;;;;;;23.50;40.50;;;;;;4970225;28;19924;-78
2022/05/15 13:36:37;;;;;;;;;;;23.30;41.30;;;;;;4965382;28;19915;-79
2022/05/15 13:44:33;;;;;;;;;;;23.60;41.20;;;;;;4994117;28;19928;-80
2022/05/15 13:46:59;;;;;;;;;;;23.70;41.20;;;;;;4957533;28;19985;-78
2022/05/15 13:49:35;;;;;;;;;;;23.50;40.20;;;;;;4964781;28;20366;-80
2022/05/15 13:52:18;;;;;;;;;;;23.60;40.60;;;;;;4987840;28;19965;-79
2022/05/15 13:54:44;;;;;;;;;;;23.60;40.70;;;;;;4958060;28;20071;-80
2022/05/15 13:57:09;;;;;;;;;;;23.70;40.90;;;;;;4962254;28;20363;-81
2022/05/15 13:59:43;;;;;;;;;;;23.70;39.70;;;;;;4958664;28;19990;-79
2022/05/15 14:02:12;;;;;;;;;;;23.80;42.50;;;;;;4970684;28;20012;-80
2022/05/15 14:04:39;;;;;;;;;;;23.80;40.60;;;;;;4963749;28;19910;-79
2022/05/15 14:07:05;;;;;;;;;;;23.70;40.40;;;;;;4976884;28;20001;-82
2022/05/15 14:09:44;;;;;;;;;;;23.60;40.40;;;;;;4961853;28;19914;-79
2022/05/15 14:12:11;;;;;;;;;;;23.60;42.60;;;;;;4980694;28;19922;-79
2022/05/15 14:14:51;;;;;;;;;;;23.70;41.70;;;;;;4980557;28;19965;-80
2022/05/15 14:17:19;;;;;;;;;;;23.80;41.20;;;;;;4962060;28;19953;-80
2022/05/15 14:19:48;;;;;;;;;;;23.80;42.70;;;;;;4973367;28;19922;-78
2022/05/15 14:22:13;;;;;;;;;;;23.90;42.80;;;;;;4957840;28;19960;-81
2022/05/15 14:24:39;;;;;;;;;;;24.00;42.80;;;;;;4958106;28;19914;-79
2022/05/15 14:27:05;;;;;;;;;;;23.90;39.30;;;;;;4957260;28;19911;-80
2022/05/15 14:29:30;;;;;;;;;;;23.90;40.00;;;;;;4972417;28;19929;-80
2022/05/15 14:32:03;;;;;;;;;;;24.00;41.50;;;;;;4974007;28;19918;-79
2022/05/15 14:34:28;;;;;;;;;;;24.10;42.80;;;;;;4980946;28;19922;-80
2022/05/15 14:36:54;;;;;;;;;;;24.10;42.90;;;;;;4965919;28;19910;-77
2022/05/15 14:39:19;;;;;;;;;;;24.10;41.50;;;;;;4973361;28;19933;-78
2022/05/15 14:41:46;;;;;;;;;;;24.00;41.60;;;;;;4973573;28;19937;-79
2022/05/15 14:44:12;;;;;;;;;;;23.90;42.80;;;;;;4960389;28;20009;-80
2022/05/15 14:46:38;;;;;;;;;;;24.00;42.60;;;;;;4976020;28;20393;-79
2022/05/15 14:49:04;;;;;;;;;;;23.90;42.00;;;;;;4974403;28;20366;-79
2022/05/15 14:51:30;;;;;;;;;;;23.90;40.70;;;;;;4981781;28;19922;-79
2022/05/15 14:53:57;;;;;;;;;;;23.80;41.80;;;;;;4975206;28;19914;-79